Terminal Aerodrome Forecast
Issued by NWS

Home | Current Version | Previous Version | Text Only | Print | Product List | Glossary On
Versions: 1 2 3 4 5 6 7 8 9 10 11 12 13
000
FTUS43 KOAX 222340
TAFBFF
TAF
KBFF 222340Z 2300/2324 31015G25KT P6SM SCT050 BKN120
     FM230400 33027G40KT 2SM -SN BLSN BKN025 OVC050
     FM230800 33024G36KT 1SM -SN BLSN BKN010 OVC025
     FM231400 32029G42KT 3SM BLSN VCSH OVC025
     FM231700 33028G40KT P6SM OVC050
     FM232300 32018G25KT P6SM SCT120=

USA.gov is the U.S. government's official web portal to all federal, state and local government web resources and services.